createdAt,value
2022-09-28T00:01:36.359Z,0.90
2022-09-28T00:04:07.220Z,0.70
2022-09-28T00:06:37.096Z,0.90
2022-09-28T00:09:07.331Z,0.87
2022-09-28T00:11:37.693Z,1.03
2022-09-28T00:14:10.252Z,0.93
2022-09-28T00:16:43.633Z,0.90
2022-09-28T00:19:14.230Z,0.97
2022-09-28T00:21:46.130Z,0.97
2022-09-28T00:24:24.020Z,0.90
2022-09-28T00:27:00.812Z,0.70
2022-09-28T00:29:34.421Z,0.87
2022-09-28T00:32:06.404Z,0.90
2022-09-28T00:34:38.231Z,1.00
2022-09-28T00:37:09.448Z,0.80
2022-09-28T00:39:41.487Z,0.80
2022-09-28T00:42:19.721Z,0.70
2022-09-28T00:44:53.171Z,0.70
2022-09-28T00:47:29.074Z,0.90
2022-09-28T00:50:04.303Z,0.73
2022-09-28T00:52:38.533Z,1.00
2022-09-28T00:55:11.813Z,1.00
2022-09-28T00:57:46.110Z,0.93
2022-09-28T01:00:19.343Z,0.87
2022-09-28T01:02:50.417Z,0.80
2022-09-28T01:05:21.780Z,0.80
2022-09-28T01:07:51.886Z,0.80
2022-09-28T01:10:21.654Z,1.20
2022-09-28T01:12:51.296Z,0.80
2022-09-28T01:15:24.874Z,0.80
2022-09-28T01:18:06.475Z,1.03
2022-09-28T01:20:48.956Z,0.73
2022-09-28T01:23:40.436Z,0.90
2022-09-28T01:26:40.491Z,0.90
2022-09-28T01:29:18.781Z,0.80
2022-09-28T01:31:54.769Z,0.80
2022-09-28T01:34:32.165Z,1.00
2022-09-28T01:37:07.472Z,1.03
2022-09-28T01:39:42.472Z,0.80
2022-09-28T01:42:20.527Z,1.20
2022-09-28T01:44:53.015Z,0.90
2022-09-28T01:47:26.119Z,0.90
2022-09-28T01:50:03.451Z,0.83
2022-09-28T01:52:40.735Z,0.80
2022-09-28T01:55:15.196Z,1.10
2022-09-28T01:57:52.102Z,0.90
2022-09-28T02:00:23.551Z,1.10
2022-09-28T02:02:57.632Z,1.23
2022-09-28T02:05:31.960Z,0.90
2022-09-28T02:08:08.188Z,1.00
2022-09-28T02:10:43.313Z,1.17
2022-09-28T02:13:19.967Z,1.10
2022-09-28T02:15:54.237Z,1.37
2022-09-28T02:18:24.019Z,1.17
2022-09-28T02:20:59.806Z,0.97
2022-09-28T02:23:31.585Z,1.30
2022-09-28T02:26:09.089Z,1.27
2022-09-28T02:28:41.394Z,1.10
2022-09-28T02:31:11.203Z,1.47
2022-09-28T02:33:44.174Z,1.10
2022-09-28T02:36:14.321Z,1.30
2022-09-28T02:38:44.049Z,1.10
2022-09-28T02:41:28.803Z,1.17
2022-09-28T02:44:11.243Z,1.07
2022-09-28T02:46:47.002Z,1.20
2022-09-28T02:49:24.697Z,1.07
2022-09-28T02:52:07.281Z,1.03
2022-09-28T02:55:02.162Z,1.17
2022-09-28T02:57:43.332Z,1.20
2022-09-28T03:00:20.819Z,1.07
2022-09-28T03:03:01.194Z,1.00
2022-09-28T03:05:41.679Z,1.20
2022-09-28T03:08:18.965Z,0.83
2022-09-28T03:10:53.894Z,1.20
2022-09-28T03:13:23.791Z,1.30
2022-09-28T03:16:08.395Z,1.27
2022-09-28T03:18:38.094Z,1.30
2022-09-28T03:21:08.620Z,1.13
2022-09-28T03:23:38.303Z,1.13
2022-09-28T03:26:10.314Z,1.20
2022-09-28T03:28:40.347Z,1.10
2022-09-28T03:31:12.754Z,1.30
2022-09-28T03:33:42.444Z,1.30
2022-09-28T03:36:14.767Z,1.27
2022-09-28T03:38:44.402Z,1.40
2022-09-28T03:41:14.086Z,1.20
2022-09-28T03:43:43.758Z,1.03
2022-09-28T03:46:16.082Z,0.90
2022-09-28T03:48:45.868Z,1.30
2022-09-28T03:51:16.270Z,0.80
2022-09-28T03:53:45.991Z,1.27
2022-09-28T03:56:17.935Z,1.30
2022-09-28T03:58:47.619Z,1.50
2022-09-28T04:01:20.156Z,1.30
2022-09-28T04:03:50.578Z,0.93
2022-09-28T04:06:20.289Z,0.80
2022-09-28T04:08:50.020Z,0.70
2022-09-28T04:11:19.943Z,0.80
2022-09-28T04:13:52.343Z,0.70
2022-09-28T04:16:24.795Z,0.90
2022-09-28T04:18:54.578Z,0.60
2022-09-28T04:21:24.534Z,0.80
2022-09-28T04:23:55.111Z,0.80
2022-09-28T04:26:27.166Z,0.83
2022-09-28T04:29:09.405Z,0.93
2022-09-28T04:31:47.236Z,0.90
2022-09-28T04:34:18.618Z,0.80
2022-09-28T04:36:48.709Z,0.80
2022-09-28T04:39:19.881Z,1.00
2022-09-28T04:41:51.459Z,1.00
2022-09-28T04:44:21.146Z,0.80
2022-09-28T04:46:53.440Z,0.90
2022-09-28T04:49:24.593Z,0.87
2022-09-28T04:51:54.261Z,0.90
2022-09-28T04:54:23.952Z,0.77
2022-09-28T04:56:54.379Z,0.73
2022-09-28T04:59:24.280Z,0.73
2022-09-28T05:01:56.656Z,1.00
2022-09-28T05:04:26.420Z,1.73
2022-09-28T05:06:56.140Z,0.90
2022-09-28T05:09:25.865Z,1.10
2022-09-28T05:11:55.898Z,0.80
2022-09-28T05:14:25.568Z,1.13
2022-09-28T05:16:57.903Z,1.00
2022-09-28T05:19:27.725Z,1.00
2022-09-28T05:21:58.288Z,1.07
2022-09-28T05:24:27.970Z,1.13
2022-09-28T05:26:57.791Z,1.20
2022-09-28T05:29:31.920Z,1.30
2022-09-28T05:32:04.765Z,1.00
2022-09-28T05:34:34.549Z,1.50
2022-09-28T05:37:04.325Z,0.90
2022-09-28T05:39:33.932Z,1.00
2022-09-28T05:42:03.650Z,0.77
2022-09-28T05:44:33.367Z,0.80
2022-09-28T05:47:05.694Z,1.17
2022-09-28T05:49:35.386Z,1.30
2022-09-28T05:52:05.439Z,1.10
2022-09-28T05:54:35.179Z,0.70
2022-09-28T05:57:08.807Z,0.93
2022-09-28T05:59:38.673Z,1.15
2022-09-28T06:02:13.113Z,0.90
2022-09-28T06:04:42.975Z,0.90
2022-09-28T06:07:12.642Z,1.17
2022-09-28T06:09:42.389Z,1.20
2022-09-28T06:12:12.150Z,1.07
2022-09-28T06:14:41.827Z,1.00
2022-09-28T06:17:14.305Z,1.10
2022-09-28T06:19:44.199Z,1.00
2022-09-28T06:22:14.064Z,1.00
2022-09-28T06:24:43.725Z,1.37
2022-09-28T06:27:13.409Z,1.23
2022-09-28T06:29:43.336Z,1.10
2022-09-28T06:32:15.594Z,1.10
2022-09-28T06:34:45.232Z,1.43
2022-09-28T06:37:14.877Z,1.30
2022-09-28T06:39:44.500Z,1.20
2022-09-28T06:42:15.762Z,1.10
2022-09-28T06:44:47.205Z,1.50
2022-09-28T06:47:19.836Z,1.13
2022-09-28T06:49:51.433Z,1.20
2022-09-28T06:52:21.191Z,1.20
2022-09-28T06:54:50.827Z,1.23
2022-09-28T06:57:20.645Z,1.33
2022-09-28T06:59:50.304Z,1.30
2022-09-28T07:02:22.829Z,1.40
2022-09-28T07:04:52.737Z,1.20
2022-09-28T07:07:22.398Z,1.60
2022-09-28T07:09:56.555Z,1.40
2022-09-28T07:12:26.570Z,1.20
2022-09-28T07:14:57.515Z,1.40
2022-09-28T07:17:29.934Z,1.30
2022-09-28T07:20:06.696Z,1.40
2022-09-28T07:22:43.700Z,1.47
2022-09-28T07:25:14.416Z,1.57
2022-09-28T07:27:44.054Z,1.50
2022-09-28T07:30:15.336Z,1.43
2022-09-28T07:32:48.569Z,1.60
2022-09-28T07:35:18.564Z,1.80
2022-09-28T07:37:48.569Z,1.90
2022-09-28T07:40:30.861Z,1.43
2022-09-28T07:43:07.086Z,2.07
2022-09-28T07:45:38.549Z,1.70
2022-09-28T07:51:00.512Z,1.93
2022-09-28T07:53:31.564Z,1.83
2022-09-28T07:56:05.297Z,2.07
2022-09-28T07:58:35.454Z,2.00
2022-09-28T08:01:10.672Z,1.90
2022-09-28T08:03:45.445Z,1.87
2022-09-28T08:06:17.975Z,2.00
2022-09-28T08:08:48.081Z,2.20
2022-09-28T08:11:19.578Z,1.83
2022-09-28T08:13:49.315Z,2.13
2022-09-28T08:16:19.533Z,2.00
2022-09-28T08:18:54.298Z,2.07
2022-09-28T08:21:38.210Z,2.10
2022-09-28T08:24:08.256Z,2.20
2022-09-28T08:26:38.032Z,2.10
2022-09-28T08:29:08.368Z,2.30
2022-09-28T08:31:38.373Z,2.03
2022-09-28T08:34:10.981Z,2.00
2022-09-28T08:36:40.725Z,2.20
2022-09-28T08:39:10.495Z,2.27
2022-09-28T08:41:48.266Z,2.60
2022-09-28T08:44:24.234Z,1.90
2022-09-28T08:46:58.030Z,1.97
2022-09-28T08:49:37.286Z,2.20
2022-09-28T08:52:12.527Z,2.03
2022-09-28T08:54:49.073Z,1.80
2022-09-28T08:57:23.734Z,1.90
2022-09-28T08:59:56.193Z,1.83
2022-09-28T09:02:31.463Z,1.63
2022-09-28T09:05:07.675Z,2.20
2022-09-28T09:08:07.025Z,2.10
2022-09-28T09:10:52.419Z,2.00
2022-09-28T09:13:35.929Z,2.20
2022-09-28T09:16:14.799Z,1.60
2022-09-28T09:18:50.220Z,1.67
2022-09-28T09:21:41.600Z,1.83
2022-09-28T09:24:27.182Z,2.67
2022-09-28T09:27:21.130Z,1.80
2022-09-28T09:30:07.299Z,1.90
2022-09-28T09:32:55.093Z,1.50
2022-09-28T09:35:43.939Z,1.70
2022-09-28T09:38:35.305Z,1.67
2022-09-28T09:41:18.555Z,1.90
2022-09-28T09:44:03.313Z,1.60
2022-09-28T09:46:40.121Z,2.10
2022-09-28T09:49:17.215Z,1.73
2022-09-28T09:51:51.956Z,1.47
2022-09-28T09:54:30.786Z,1.60
2022-09-28T09:57:06.183Z,1.70
2022-09-28T09:59:40.715Z,1.63
2022-09-28T10:02:19.853Z,1.67
2022-09-28T10:04:51.862Z,1.80
2022-09-28T10:07:27.176Z,2.00
2022-09-28T10:10:02.734Z,2.00
2022-09-28T10:12:32.865Z,1.70
2022-09-28T10:15:06.806Z,1.60
2022-09-28T10:17:39.398Z,1.90
2022-09-28T10:20:14.865Z,2.23
2022-09-28T10:22:45.767Z,1.90
2022-09-28T10:25:18.683Z,1.97
2022-09-28T10:27:52.793Z,1.73
2022-09-28T10:30:24.827Z,1.80
2022-09-28T10:32:59.617Z,1.90
2022-09-28T10:35:32.461Z,2.33
2022-09-28T10:38:04.734Z,1.80
2022-09-28T10:40:46.268Z,2.03
2022-09-28T10:43:24.696Z,2.10
2022-09-28T10:46:04.619Z,1.80
2022-09-28T10:48:48.623Z,1.80
2022-09-28T10:51:19.675Z,1.77
2022-09-28T10:54:02.334Z,1.87
2022-09-28T10:56:39.951Z,1.53
2022-09-28T10:59:26.763Z,1.67
2022-09-28T11:01:58.674Z,1.50
2022-09-28T11:04:31.644Z,1.57
2022-09-28T11:07:02.198Z,1.90
2022-09-28T11:09:34.759Z,1.73
2022-09-28T11:12:09.564Z,1.67
2022-09-28T11:14:43.792Z,1.60
2022-09-28T11:17:19.176Z,1.10
2022-09-28T11:19:49.401Z,1.40
2022-09-28T11:22:31.858Z,1.40
2022-09-28T11:25:22.482Z,1.80
2022-09-28T11:28:04.786Z,1.50
2022-09-28T11:30:41.128Z,1.53
2022-09-28T11:33:20.135Z,1.50
2022-09-28T11:35:54.660Z,1.70
2022-09-28T11:38:36.525Z,1.27
2022-09-28T11:41:24.309Z,1.90
2022-09-28T11:44:20.083Z,1.70
2022-09-28T11:46:57.312Z,1.60
2022-09-28T11:49:34.667Z,1.50
2022-09-28T11:52:09.735Z,1.47
2022-09-28T11:54:47.536Z,1.50
2022-09-28T11:57:21.731Z,1.40
2022-09-28T12:00:01.699Z,1.43
2022-09-28T12:02:36.688Z,1.07
2022-09-28T12:05:20.552Z,1.60
2022-09-28T12:07:55.603Z,1.40
2022-09-28T12:10:35.736Z,1.73
2022-09-28T12:13:10.305Z,1.63
2022-09-28T12:16:22.560Z,1.33
2022-09-28T12:18:52.309Z,1.30
2022-09-28T12:21:34.342Z,1.80
2022-09-28T12:24:12.615Z,1.40
2022-09-28T12:26:48.922Z,1.27
2022-09-28T12:29:23.468Z,1.60
2022-09-28T12:32:07.221Z,1.40
2022-09-28T12:34:36.869Z,1.60
2022-09-28T12:37:30.297Z,1.30
2022-09-28T12:40:18.563Z,1.23
2022-09-28T12:43:05.431Z,1.37
2022-09-28T12:46:10.510Z,1.20
2022-09-28T12:49:24.090Z,1.40
2022-09-28T12:51:51.537Z,1.43
2022-09-28T12:54:51.843Z,1.10
2022-09-28T12:57:37.639Z,1.73
2022-09-28T13:00:11.606Z,1.10
2022-09-28T13:03:08.331Z,1.40
2022-09-28T13:06:11.555Z,1.50
2022-09-28T13:08:51.464Z,1.30
2022-09-28T13:11:32.005Z,1.00
2022-09-28T13:14:14.819Z,1.30
2022-09-28T13:16:51.177Z,1.37
2022-09-28T13:19:30.357Z,1.13
2022-09-28T13:22:19.991Z,1.43
2022-09-28T13:24:52.516Z,1.07
2022-09-28T13:27:29.944Z,1.40
2022-09-28T13:30:03.802Z,1.17
2022-09-28T13:32:35.716Z,1.20
2022-09-28T13:35:06.594Z,1.40
2022-09-28T13:37:38.890Z,1.07
2022-09-28T13:40:09.816Z,1.10
2022-09-28T13:43:21.470Z,1.27
2022-09-28T13:45:58.899Z,1.00
2022-09-28T13:48:44.497Z,1.40
2022-09-28T13:51:42.261Z,1.10
2022-09-28T13:54:41.659Z,1.20
2022-09-28T13:57:21.046Z,1.40
2022-09-28T14:00:03.076Z,1.17
2022-09-28T14:02:39.543Z,1.33
2022-09-28T14:05:29.948Z,1.00
2022-09-28T14:08:13.643Z,1.23
2022-09-28T14:10:52.906Z,1.00
2022-09-28T14:13:52.644Z,1.10
2022-09-28T14:16:24.287Z,1.20
2022-09-28T14:18:59.370Z,1.10
2022-09-28T14:21:50.791Z,1.03
2022-09-28T14:24:55.649Z,1.10
2022-09-28T14:28:03.232Z,1.10
2022-09-28T14:30:49.587Z,1.27
2022-09-28T14:33:27.759Z,1.23
2022-09-28T14:36:00.996Z,1.13
2022-09-28T14:38:47.810Z,1.20
2022-09-28T14:41:31.598Z,1.23
2022-09-28T14:44:10.409Z,1.63
2022-09-28T14:46:43.807Z,1.43
2022-09-28T14:49:43.580Z,1.23
2022-09-28T14:52:15.755Z,1.23
2022-09-28T14:54:51.962Z,0.87
2022-09-28T14:57:24.876Z,1.30
2022-09-28T15:00:00.880Z,1.53
2022-09-28T15:02:35.154Z,1.30
2022-09-28T15:05:17.371Z,1.30
2022-09-28T15:07:52.256Z,1.20
2022-09-28T15:10:36.334Z,1.20
2022-09-28T15:13:08.426Z,1.30
2022-09-28T15:15:43.541Z,1.20
2022-09-28T15:18:31.132Z,1.60
2022-09-28T15:21:00.976Z,1.40
2022-09-28T15:23:37.476Z,1.23
2022-09-28T15:26:10.114Z,1.40
2022-09-28T15:28:40.222Z,1.60
2022-09-28T15:31:21.022Z,1.17
2022-09-28T15:34:03.687Z,1.40
2022-09-28T15:36:36.505Z,1.27
2022-09-28T15:39:08.931Z,1.03
2022-09-28T15:41:38.924Z,1.30
2022-09-28T15:44:39.461Z,1.23
2022-09-28T15:47:19.407Z,1.40
2022-09-28T15:49:58.689Z,1.00
2022-09-28T15:52:37.164Z,1.20
2022-09-28T15:55:19.714Z,0.83
2022-09-28T15:57:50.160Z,1.37
2022-09-28T16:00:29.157Z,1.57
2022-09-28T16:03:21.913Z,1.10
2022-09-28T16:05:54.069Z,0.90
2022-09-28T16:08:27.473Z,1.07
2022-09-28T16:11:12.294Z,1.00
2022-09-28T16:13:55.741Z,1.50
2022-09-28T16:16:30.982Z,1.10
2022-09-28T16:19:05.115Z,1.00
2022-09-28T16:21:48.265Z,1.00
2022-09-28T16:24:26.691Z,0.93
2022-09-28T16:27:02.512Z,1.50
2022-09-28T16:29:40.432Z,1.20
2022-09-28T16:32:41.600Z,1.40
2022-09-28T16:35:29.223Z,1.40
2022-09-28T16:38:13.911Z,1.40
2022-09-28T16:40:46.365Z,1.40
2022-09-28T16:43:27.179Z,1.30
2022-09-28T16:45:58.573Z,1.30
2022-09-28T16:48:29.643Z,1.37
2022-09-28T16:51:03.038Z,1.70
2022-09-28T16:53:45.104Z,1.30
2022-09-28T16:56:16.326Z,1.57
2022-09-28T16:58:49.221Z,1.30
2022-09-28T17:01:19.757Z,1.17
2022-09-28T17:03:50.324Z,1.10
2022-09-28T17:06:25.508Z,1.73
2022-09-28T17:08:58.547Z,1.43
2022-09-28T17:11:28.359Z,1.30
2022-09-28T17:14:00.291Z,1.27
2022-09-28T17:17:06.228Z,1.70
2022-09-28T17:19:28.741Z,1.80
2022-09-28T17:22:01.109Z,1.80
2022-09-28T17:24:30.832Z,1.80
2022-09-28T17:27:00.969Z,2.10
2022-09-28T17:29:30.755Z,2.17
2022-09-28T17:32:00.496Z,2.23
2022-09-28T17:34:30.262Z,2.23
2022-09-28T17:37:02.607Z,1.83
2022-09-28T17:39:32.303Z,2.00
2022-09-28T17:42:02.058Z,2.23
2022-09-28T17:44:31.809Z,2.10
2022-09-28T17:47:02.154Z,3.00
2022-09-28T17:49:31.942Z,4.27
2022-09-28T17:52:05.702Z,4.30
2022-09-28T17:54:35.455Z,3.90
2022-09-28T17:57:05.180Z,3.72
2022-09-28T17:59:34.944Z,3.50
2022-09-28T18:02:04.695Z,3.50
2022-09-28T18:04:51.414Z,3.63
2022-09-28T18:07:24.987Z,2.83
2022-09-28T18:09:56.843Z,2.97
2022-09-28T18:12:26.938Z,3.43
2022-09-28T18:14:56.869Z,2.90
2022-09-28T18:17:26.698Z,2.70
2022-09-28T18:19:56.467Z,2.50
2022-09-28T18:22:28.907Z,3.20
2022-09-28T18:24:58.742Z,3.10
2022-09-28T18:27:30.229Z,4.47
2022-09-28T18:30:00.450Z,4.13
2022-09-28T18:32:30.228Z,4.00
2022-09-28T18:34:59.985Z,3.63
2022-09-28T18:37:33.473Z,3.60
2022-09-28T18:40:03.496Z,3.23
2022-09-28T18:42:35.704Z,3.67
2022-09-28T18:45:05.993Z,3.10
2022-09-28T18:47:36.303Z,4.77
2022-09-28T18:50:06.532Z,4.37
2022-09-28T18:52:42.503Z,4.20
2022-09-28T18:55:12.906Z,3.60
2022-09-28T18:57:44.338Z,2.90
2022-09-28T19:00:15.901Z,3.43
2022-09-28T19:02:45.902Z,2.50
2022-09-28T19:05:15.796Z,3.70
2022-09-28T19:07:48.166Z,2.80
2022-09-28T19:10:18.024Z,3.20
2022-09-28T19:12:47.820Z,2.83
2022-09-28T19:15:18.669Z,3.07
2022-09-28T19:17:49.456Z,5.87
2022-09-28T19:20:19.551Z,5.23
2022-09-28T19:22:54.560Z,4.90
2022-09-28T19:25:24.276Z,2.90
2022-09-28T19:27:54.095Z,3.10
2022-09-28T19:30:23.850Z,2.90
2022-09-28T19:32:53.600Z,4.47
2022-09-28T19:35:23.420Z,3.20
2022-09-28T19:37:56.269Z,6.13
2022-09-28T19:40:26.051Z,3.20
2022-09-28T19:42:55.919Z,3.20
2022-09-28T19:45:25.703Z,3.23
2022-09-28T19:48:01.768Z,2.60
2022-09-28T19:50:32.110Z,2.83
2022-09-28T19:53:07.309Z,3.30
2022-09-28T19:55:37.381Z,2.87
2022-09-28T19:58:07.381Z,2.93
2022-09-28T20:00:37.254Z,2.87
2022-09-28T20:03:06.976Z,2.70
2022-09-28T20:05:39.015Z,3.13
2022-09-28T20:08:11.998Z,3.10
2022-09-28T20:10:42.077Z,2.73
2022-09-28T20:13:11.887Z,3.07
2022-09-28T20:15:41.748Z,2.83
2022-09-28T20:18:12.299Z,2.63
2022-09-28T20:20:42.852Z,3.20
2022-09-28T20:23:15.593Z,3.17
2022-09-28T20:25:45.384Z,3.20
2022-09-28T20:28:15.533Z,2.80
2022-09-28T20:30:45.423Z,2.60
2022-09-28T20:33:22.846Z,3.33
2022-09-28T20:35:59.521Z,2.63
2022-09-28T20:38:31.807Z,3.03
2022-09-28T20:41:03.064Z,2.60
2022-09-28T20:43:34.978Z,2.77
2022-09-28T20:46:05.464Z,2.97
2022-09-28T20:48:35.685Z,2.83
2022-09-28T20:51:10.315Z,3.40
2022-09-28T20:53:44.158Z,2.97
2022-09-28T20:56:19.797Z,2.73
2022-09-28T20:58:51.230Z,3.00
2022-09-28T21:01:23.345Z,3.00
2022-09-28T21:03:54.612Z,2.97
2022-09-28T21:06:27.103Z,2.60
2022-09-28T21:08:59.679Z,2.50
2022-09-28T21:11:31.448Z,3.00
2022-09-28T21:14:02.686Z,2.70
2022-09-28T21:16:34.516Z,2.60
2022-09-28T21:19:04.420Z,2.50
2022-09-28T21:21:34.629Z,2.77
2022-09-28T21:24:07.313Z,2.63
2022-09-28T21:26:37.156Z,2.50
2022-09-28T21:29:09.116Z,2.83
2022-09-28T21:31:42.118Z,2.37
2022-09-28T21:34:15.150Z,2.23
2022-09-28T21:36:45.019Z,2.43
2022-09-28T21:39:17.857Z,2.30
2022-09-28T21:41:47.877Z,2.53
2022-09-28T21:44:17.679Z,2.30
2022-09-28T21:46:47.609Z,2.70
2022-09-28T21:49:17.427Z,2.67
2022-09-28T21:51:47.379Z,2.50
2022-09-28T21:54:19.941Z,2.53
2022-09-28T21:56:49.820Z,2.40
2022-09-28T21:59:19.646Z,2.37
2022-09-28T22:01:49.443Z,2.40
2022-09-28T22:04:19.436Z,2.10
2022-09-28T22:06:49.394Z,2.50
2022-09-28T22:09:21.866Z,2.30
2022-09-28T22:11:51.660Z,2.60
2022-09-28T22:14:21.469Z,2.20
2022-09-28T22:16:51.295Z,2.40
2022-09-28T22:19:21.134Z,3.10
2022-09-28T22:21:50.921Z,2.43
2022-09-28T22:24:23.388Z,2.40
2022-09-28T22:26:53.157Z,2.50
2022-09-28T22:29:24.117Z,2.63
2022-09-28T22:32:00.331Z,2.63
2022-09-28T22:34:31.815Z,2.47
2022-09-28T22:37:02.570Z,2.40
2022-09-28T22:39:37.680Z,2.80
2022-09-28T22:42:08.134Z,2.87
2022-09-28T22:44:38.560Z,2.43
2022-09-28T22:47:08.452Z,2.60
2022-09-28T22:49:38.189Z,2.60
2022-09-28T22:52:08.034Z,2.70
2022-09-28T22:54:40.778Z,2.43
2022-09-28T22:57:10.689Z,2.60
2022-09-28T22:59:40.511Z,2.57
2022-09-28T23:02:10.271Z,2.60
2022-09-28T23:04:40.038Z,2.17
2022-09-28T23:07:09.782Z,2.30
2022-09-28T23:09:42.189Z,2.87
2022-09-28T23:12:12.022Z,2.30
2022-09-28T23:14:41.779Z,2.33
2022-09-28T23:17:11.510Z,2.53
2022-09-28T23:19:41.282Z,2.17
2022-09-28T23:22:11.111Z,2.50
2022-09-28T23:24:43.511Z,2.30
2022-09-28T23:27:13.296Z,2.20
2022-09-28T23:29:47.050Z,2.50
2022-09-28T23:32:16.982Z,2.13
2022-09-28T23:34:47.060Z,2.77
2022-09-28T23:37:16.810Z,2.77
2022-09-28T23:39:49.189Z,2.10
2022-09-28T23:42:18.928Z,2.40
2022-09-28T23:44:48.701Z,2.27
2022-09-28T23:47:18.424Z,2.30
2022-09-28T23:49:48.203Z,2.13
2022-09-28T23:52:18.055Z,2.20
2022-09-28T23:54:50.458Z,2.50
2022-09-28T23:57:20.322Z,2.00
2022-09-28T23:59:50.020Z,2.50
